Aeroporto :
LOGIN :

Iscrizione | Disclaimer

   EN    FR    IT 

 










Sommario :    VFR   VFR Marginale   IFR   IFR Intensivo   IFR Molto Intensivo
Visibilità : 
Base nubi : 
>= 8 km
>= 3000ft
5 / 8 km
1000 / 3000 ft
1500m / 5 km
500 / 1000 ft
800 / 1500m
200 / 500 ft
< 800m
< 200 ft
Simboli :   Temporali  Nebbia  Neve Forte  Precipitazioni Forti  Vento > 20 kt
SIGMETs :   Varie  Temporali  Ghiacco  Turbolenza  Onda orograficha  Ceneri Vulcaniche






- Altitudine del aeroporto : 3368 ft


LSGC - Les Eplatures

ULTIMO METAR :
  • 221550Z 28009KT 260V320 CAVOK 11/M04 Q1029

METARs OBSOLETI :
  • 221520Z 25006KT CAVOK 12/M03 Q1029
  • 221450Z 26007KT CAVOK 12/M04 Q1029
  • 221420Z 22008KT 180V250 CAVOK 12/M05 Q1029
  • 221350Z 24006KT 180V280 CAVOK 12/M04 Q1029
  • 221320Z 22007KT CAVOK 11/M06 Q1029

TAF TAF LSGC
Valido dal 22 a 15 ore il 23 a 00 ore UTC


221425Z 2215/2224 24006KT CAVOK



MetMap, La meteo Aeronautica in un colpo d'occhio ! - Copyright ORBIFLY Dicembre 2007 - Disclaimer

ORBIFLY MET'MAP TEAM :

Programmazione e sviluppo : Alexandra Zaïnal
Concezione : Baudouin d'Aumeries
Aiuto per la programmazione : Marc-Olivier Méhu
Supporto tecnico e logistico : Manuel Goepfert
Aiuto per la traduzione : Arnaldo La Scala

Contatto : metmap@orbifly.com




FONTI E CREDITI :

   NOAA